sensor_id;sensor_type;location;lat;lon;timestamp;pressure;altitude;pressure_sealevel;temperature;humidity
17764;BME280;22245;52.832;13.816;2024-01-11T00:00:15;102938.84;;;-6.29;94.50
17764;BME280;22245;52.832;13.816;2024-01-11T00:03:39;102929.53;;;-6.19;94.56
17764;BME280;22245;52.832;13.816;2024-01-11T00:07:00;102920.97;;;-6.15;94.36
17764;BME280;22245;52.832;13.816;2024-01-11T00:10:24;102914.19;;;-6.07;94.25
17764;BME280;22245;52.832;13.816;2024-01-11T00:13:45;102903.00;;;-6.04;94.88
17764;BME280;22245;52.832;13.816;2024-01-11T00:17:07;102883.19;;;-5.99;95.30
17764;BME280;22245;52.832;13.816;2024-01-11T00:20:28;102884.91;;;-6.01;95.92
17764;BME280;22245;52.832;13.816;2024-01-11T00:23:50;102861.69;;;-5.92;96.30
17764;BME280;22245;52.832;13.816;2024-01-11T00:27:13;102861.78;;;-5.87;96.29
17764;BME280;22245;52.832;13.816;2024-01-11T00:30:34;102841.16;;;-5.79;96.68
17764;BME280;22245;52.832;13.816;2024-01-11T00:33:56;102840.41;;;-5.71;97.14
17764;BME280;22245;52.832;13.816;2024-01-11T00:37:18;102846.72;;;-5.56;97.39
17764;BME280;22245;52.832;13.816;2024-01-11T00:40:39;102867.50;;;-5.55;97.60
17764;BME280;22245;52.832;13.816;2024-01-11T00:44:02;102854.66;;;-5.47;97.65
17764;BME280;22245;52.832;13.816;2024-01-11T00:47:24;102834.88;;;-5.39;97.53
17764;BME280;22245;52.832;13.816;2024-01-11T00:50:46;102822.72;;;-5.40;97.24
17764;BME280;22245;52.832;13.816;2024-01-11T00:54:07;102829.72;;;-5.37;97.79
17764;BME280;22245;52.832;13.816;2024-01-11T00:57:29;102835.75;;;-5.37;97.83
17764;BME280;22245;52.832;13.816;2024-01-11T01:00:53;102856.56;;;-5.35;98.15
17764;BME280;22245;52.832;13.816;2024-01-11T01:04:15;102849.72;;;-5.30;98.30
17764;BME280;22245;52.832;13.816;2024-01-11T01:07:37;102847.16;;;-5.28;98.40
17764;BME280;22245;52.832;13.816;2024-01-11T01:10:59;102848.06;;;-5.26;98.23
17764;BME280;22245;52.832;13.816;2024-01-11T01:14:21;102843.88;;;-5.13;98.28
17764;BME280;22245;52.832;13.816;2024-01-11T01:17:43;102848.19;;;-5.17;97.88
17764;BME280;22245;52.832;13.816;2024-01-11T01:21:05;102851.75;;;-5.09;97.93
17764;BME280;22245;52.832;13.816;2024-01-11T01:24:27;102874.38;;;-5.01;97.04
17764;BME280;22245;52.832;13.816;2024-01-11T01:27:49;102887.34;;;-5.04;97.51
17764;BME280;22245;52.832;13.816;2024-01-11T01:31:10;102882.91;;;-5.12;98.60
17764;BME280;22245;52.832;13.816;2024-01-11T01:34:33;102878.69;;;-5.03;98.55
17764;BME280;22245;52.832;13.816;2024-01-11T01:37:55;102884.72;;;-5.04;99.29
17764;BME280;22245;52.832;13.816;2024-01-11T01:41:16;102872.75;;;-4.93;98.90
17764;BME280;22245;52.832;13.816;2024-01-11T01:44:38;102871.97;;;-4.87;98.59
17764;BME280;22245;52.832;13.816;2024-01-11T01:48:02;102872.09;;;-4.78;98.23
17764;BME280;22245;52.832;13.816;2024-01-11T01:51:28;102873.81;;;-4.82;99.23
17764;BME280;22245;52.832;13.816;2024-01-11T01:54:50;102878.25;;;-4.71;99.10
17764;BME280;22245;52.832;13.816;2024-01-11T01:58:12;102879.13;;;-4.72;98.73
17764;BME280;22245;52.832;13.816;2024-01-11T02:01:34;102881.78;;;-4.68;98.60
17764;BME280;22245;52.832;13.816;2024-01-11T02:04:55;102857.53;;;-4.65;99.04
17764;BME280;22245;52.832;13.816;2024-01-11T02:08:21;102853.22;;;-4.63;99.36
17764;BME280;22245;52.832;13.816;2024-01-11T02:11:44;102861.16;;;-4.52;99.45
17764;BME280;22245;52.832;13.816;2024-01-11T02:15:06;102862.94;;;-4.48;98.75
17764;BME280;22245;52.832;13.816;2024-01-11T02:18:28;102839.50;;;-4.53;100.00
17764;BME280;22245;52.832;13.816;2024-01-11T02:21:52;102846.44;;;-4.50;100.00
17764;BME280;22245;52.832;13.816;2024-01-11T02:25:16;102835.25;;;-4.44;100.00
17764;BME280;22245;52.832;13.816;2024-01-11T02:28:37;102841.38;;;-4.38;100.00
17764;BME280;22245;52.832;13.816;2024-01-11T02:32:00;102842.31;;;-4.31;100.00
17764;BME280;22245;52.832;13.816;2024-01-11T02:35:23;102864.94;;;-4.24;99.44
17764;BME280;22245;52.832;13.816;2024-01-11T02:38:45;102850.22;;;-4.23;98.90
17764;BME280;22245;52.832;13.816;2024-01-11T02:42:08;102868.44;;;-4.23;98.83
17764;BME280;22245;52.832;13.816;2024-01-11T02:45:30;102864.19;;;-4.15;100.00
17764;BME280;22245;52.832;13.816;2024-01-11T02:48:51;102844.16;;;-4.21;98.85
17764;BME280;22245;52.832;13.816;2024-01-11T02:52:13;102848.44;;;-4.27;99.40
17764;BME280;22245;52.832;13.816;2024-01-11T02:55:34;102847.63;;;-4.22;99.77
17764;BME280;22245;52.832;13.816;2024-01-11T02:58:57;102844.19;;;-4.17;100.00
17764;BME280;22245;52.832;13.816;2024-01-11T03:02:19;102848.63;;;-4.10;99.98
17764;BME280;22245;52.832;13.816;2024-01-11T03:05:41;102833.91;;;-4.07;100.00
17764;BME280;22245;52.832;13.816;2024-01-11T03:09:03;102840.00;;;-4.06;99.53
17764;BME280;22245;52.832;13.816;2024-01-11T03:12:25;102829.59;;;-4.06;99.13
17764;BME280;22245;52.832;13.816;2024-01-11T03:15:48;102826.09;;;-4.07;100.00
17764;BME280;22245;52.832;13.816;2024-01-11T03:19:10;102814.88;;;-4.01;99.87
17764;BME280;22245;52.832;13.816;2024-01-11T03:22:32;102802.78;;;-3.96;99.26
17764;BME280;22245;52.832;13.816;2024-01-11T03:25:53;102791.50;;;-3.95;99.10
17764;BME280;22245;52.832;13.816;2024-01-11T03:29:15;102780.25;;;-3.90;99.43
17764;BME280;22245;52.832;13.816;2024-01-11T03:32:38;102779.38;;;-3.89;99.97
17764;BME280;22245;52.832;13.816;2024-01-11T03:36:06;102792.44;;;-3.83;100.00
17764;BME280;22245;52.832;13.816;2024-01-11T03:39:27;102802.00;;;-3.82;98.57
17764;BME280;22245;52.832;13.816;2024-01-11T03:42:48;102800.31;;;-3.79;100.00
17764;BME280;22245;52.832;13.816;2024-01-11T03:46:10;102810.75;;;-3.75;99.96
17764;BME280;22245;52.832;13.816;2024-01-11T03:49:33;102803.00;;;-3.71;99.18
17764;BME280;22245;52.832;13.816;2024-01-11T03:52:54;102810.78;;;-3.69;98.98
17764;BME280;22245;52.832;13.816;2024-01-11T03:56:16;102813.41;;;-3.66;100.00
17764;BME280;22245;52.832;13.816;2024-01-11T03:59:38;102803.91;;;-3.63;99.02
17764;BME280;22245;52.832;13.816;2024-01-11T04:03:00;102804.81;;;-3.57;100.00
17764;BME280;22245;52.832;13.816;2024-01-11T04:06:24;102785.69;;;-3.59;99.56
17764;BME280;22245;52.832;13.816;2024-01-11T04:09:46;102782.22;;;-3.58;98.98
17764;BME280;22245;52.832;13.816;2024-01-11T04:13:07;102780.50;;;-3.56;99.92
17764;BME280;22245;52.832;13.816;2024-01-11T04:16:28;102778.81;;;-3.53;99.46
17764;BME280;22245;52.832;13.816;2024-01-11T04:19:50;102792.72;;;-3.46;99.83
17764;BME280;22245;52.832;13.816;2024-01-11T04:23:12;102780.66;;;-3.38;98.65
17764;BME280;22245;52.832;13.816;2024-01-11T04:26:34;102755.47;;;-3.39;99.23
17764;BME280;22245;52.832;13.816;2024-01-11T04:29:56;102762.34;;;-3.44;99.85
17764;BME280;22245;52.832;13.816;2024-01-11T04:33:17;102778.03;;;-3.38;99.17
17764;BME280;22245;52.832;13.816;2024-01-11T04:36:39;102780.66;;;-3.38;99.92
17764;BME280;22245;52.832;13.816;2024-01-11T04:40:02;102748.53;;;-3.33;99.34
17764;BME280;22245;52.832;13.816;2024-01-11T04:43:24;102751.16;;;-3.27;98.70
17764;BME280;22245;52.832;13.816;2024-01-11T04:46:45;102775.50;;;-3.25;99.75
17764;BME280;22245;52.832;13.816;2024-01-11T04:50:07;102776.34;;;-3.25;98.51
17764;BME280;22245;52.832;13.816;2024-01-11T04:53:29;102747.72;;;-3.20;98.88
17764;BME280;22245;52.832;13.816;2024-01-11T04:56:52;102739.88;;;-3.25;98.94
17764;BME280;22245;52.832;13.816;2024-01-11T05:00:14;102758.09;;;-3.25;100.00
17764;BME280;22245;52.832;13.816;2024-01-11T05:03:36;102759.03;;;-3.20;100.00
17764;BME280;22245;52.832;13.816;2024-01-11T05:06:57;102759.91;;;-3.16;100.00
17764;BME280;22245;52.832;13.816;2024-01-11T05:10:19;102758.19;;;-3.12;100.00
17764;BME280;22245;52.832;13.816;2024-01-11T05:13:42;102760.81;;;-3.09;98.98
17764;BME280;22245;52.832;13.816;2024-01-11T05:17:05;102752.09;;;-3.16;99.62
17764;BME280;22245;52.832;13.816;2024-01-11T05:20:28;102754.69;;;-3.13;100.00
17764;BME280;22245;52.832;13.816;2024-01-11T05:23:50;102759.03;;;-3.15;99.75
17764;BME280;22245;52.832;13.816;2024-01-11T05:27:12;102758.19;;;-3.11;99.66
17764;BME280;22245;52.832;13.816;2024-01-11T05:30:35;102739.06;;;-3.11;100.00
17764;BME280;22245;52.832;13.816;2024-01-11T05:33:57;102749.50;;;-3.10;100.00
17764;BME280;22245;52.832;13.816;2024-01-11T05:37:19;102750.38;;;-3.06;99.68
17764;BME280;22245;52.832;13.816;2024-01-11T05:40:41;102761.69;;;-3.06;99.97
17764;BME280;22245;52.832;13.816;2024-01-11T05:44:02;102783.44;;;-2.99;99.96
17764;BME280;22245;52.832;13.816;2024-01-11T05:47:26;102768.66;;;-3.03;100.00
17764;BME280;22245;52.832;13.816;2024-01-11T05:50:47;102761.75;;;-2.96;100.00
17764;BME280;22245;52.832;13.816;2024-01-11T05:54:08;102742.59;;;-2.94;100.00
17764;BME280;22245;52.832;13.816;2024-01-11T05:57:30;102724.38;;;-2.92;100.00
17764;BME280;22245;52.832;13.816;2024-01-11T06:00:51;102740.03;;;-2.87;100.00
17764;BME280;22245;52.832;13.816;2024-01-11T06:04:14;102733.94;;;-2.88;100.00
17764;BME280;22245;52.832;13.816;2024-01-11T06:07:36;102720.03;;;-2.85;100.00
17764;BME280;22245;52.832;13.816;2024-01-11T06:10:58;102705.25;;;-2.88;100.00
17764;BME280;22245;52.832;13.816;2024-01-11T06:14:20;102718.31;;;-2.88;100.00
17764;BME280;22245;52.832;13.816;2024-01-11T06:17:41;102720.03;;;-2.85;100.00
17764;BME280;22245;52.832;13.816;2024-01-11T06:21:05;102721.78;;;-2.86;100.00
17764;BME280;22245;52.832;13.816;2024-01-11T06:24:26;102713.09;;;-2.82;100.00
17764;BME280;22245;52.832;13.816;2024-01-11T06:27:48;102727.88;;;-2.74;100.00
17764;BME280;22245;52.832;13.816;2024-01-11T06:31:09;102729.63;;;-2.73;100.00
17764;BME280;22245;52.832;13.816;2024-01-11T06:34:32;102708.78;;;-2.70;100.00
17764;BME280;22245;52.832;13.816;2024-01-11T06:37:55;102707.94;;;-2.65;100.00
17764;BME280;22245;52.832;13.816;2024-01-11T06:41:16;102709.66;;;-2.57;100.00
17764;BME280;22245;52.832;13.816;2024-01-11T06:44:38;102701.00;;;-2.61;100.00
17764;BME280;22245;52.832;13.816;2024-01-11T06:47:59;102690.56;;;-2.58;100.00
17764;BME280;22245;52.832;13.816;2024-01-11T06:51:22;102713.16;;;-2.62;100.00
17764;BME280;22245;52.832;13.816;2024-01-11T06:54:45;102716.66;;;-2.55;100.00
17764;BME280;22245;52.832;13.816;2024-01-11T06:58:06;102708.81;;;-2.56;100.00
17764;BME280;22245;52.832;13.816;2024-01-11T07:01:28;102685.34;;;-2.55;100.00
17764;BME280;22245;52.832;13.816;2024-01-11T07:04:49;102680.13;;;-2.45;100.00
17764;BME280;22245;52.832;13.816;2024-01-11T07:08:11;102688.84;;;-2.42;100.00
17764;BME280;22245;52.832;13.816;2024-01-11T07:11:33;102678.41;;;-2.36;100.00
17764;BME280;22245;52.832;13.816;2024-01-11T07:14:55;102687.94;;;-2.33;100.00
17764;BME280;22245;52.832;13.816;2024-01-11T07:18:16;102698.41;;;-2.35;100.00
17764;BME280;22245;52.832;13.816;2024-01-11T07:21:38;102707.09;;;-2.29;100.00
17764;BME280;22245;52.832;13.816;2024-01-11T07:24:59;102706.25;;;-2.24;100.00
17764;BME280;22245;52.832;13.816;2024-01-11T07:28:22;102690.56;;;-2.21;100.00
17764;BME280;22245;52.832;13.816;2024-01-11T07:31:45;102687.94;;;-2.16;100.00
17764;BME280;22245;52.832;13.816;2024-01-11T07:35:07;102676.63;;;-2.18;100.00
17764;BME280;22245;52.832;13.816;2024-01-11T07:38:34;102683.63;;;-2.19;100.00
17764;BME280;22245;52.832;13.816;2024-01-11T07:41:56;102674.03;;;-2.23;100.00
17764;BME280;22245;52.832;13.816;2024-01-11T07:45:19;102676.66;;;-2.20;100.00
17764;BME280;22245;52.832;13.816;2024-01-11T07:48:40;102686.19;;;-2.14;100.00
17764;BME280;22245;52.832;13.816;2024-01-11T07:52:02;102684.47;;;-2.04;100.00
17764;BME280;22245;52.832;13.816;2024-01-11T07:55:26;102697.53;;;-1.96;100.00
17764;BME280;22245;52.832;13.816;2024-01-11T07:58:47;102696.66;;;-1.98;100.00
17764;BME280;22245;52.832;13.816;2024-01-11T08:02:11;102696.66;;;-1.95;100.00
17764;BME280;22245;52.832;13.816;2024-01-11T08:05:32;102695.75;;;-1.90;100.00
17764;BME280;22245;52.832;13.816;2024-01-11T08:08:54;102688.81;;;-1.92;100.00
17764;BME280;22245;52.832;13.816;2024-01-11T08:12:16;102671.41;;;-1.85;100.00
17764;BME280;22245;52.832;13.816;2024-01-11T08:15:37;102668.78;;;-1.82;100.00
17764;BME280;22245;52.832;13.816;2024-01-11T08:19:00;102666.13;;;-1.76;100.00
17764;BME280;22245;52.832;13.816;2024-01-11T08:22:23;102666.09;;;-1.67;100.00
17764;BME280;22245;52.832;13.816;2024-01-11T08:25:47;102672.22;;;-1.63;100.00
17764;BME280;22245;52.832;13.816;2024-01-11T08:29:08;102666.13;;;-1.65;100.00
17764;BME280;22245;52.832;13.816;2024-01-11T08:32:30;102663.47;;;-1.61;100.00
17764;BME280;22245;52.832;13.816;2024-01-11T08:35:53;102654.75;;;-1.60;100.00
17764;BME280;22245;52.832;13.816;2024-01-11T08:39:15;102654.75;;;-1.56;100.00
17764;BME280;22245;52.832;13.816;2024-01-11T08:42:37;102639.06;;;-1.52;100.00
17764;BME280;22245;52.832;13.816;2024-01-11T08:45:59;102631.22;;;-1.49;100.00
17764;BME280;22245;52.832;13.816;2024-01-11T08:49:22;102625.94;;;-1.39;100.00
17764;BME280;22245;52.832;13.816;2024-01-11T08:52:45;102614.59;;;-1.34;100.00
17764;BME280;22245;52.832;13.816;2024-01-11T08:56:07;102613.72;;;-1.31;100.00
17764;BME280;22245;52.832;13.816;2024-01-11T08:59:28;102622.41;;;-1.27;100.00
17764;BME280;22245;52.832;13.816;2024-01-11T09:02:50;102623.25;;;-1.25;100.00
17764;BME280;22245;52.832;13.816;2024-01-11T09:06:12;102614.56;;;-1.26;100.00
17764;BME280;22245;52.832;13.816;2024-01-11T09:09:35;102607.53;;;-1.18;100.00
17764;BME280;22245;52.832;13.816;2024-01-11T09:13:10;102618.00;;;-1.22;100.00
17764;BME280;22245;52.832;13.816;2024-01-11T09:16:34;102634.56;;;-1.23;100.00
17764;BME280;22245;52.832;13.816;2024-01-11T09:19:56;102637.13;;;-1.14;100.00
17764;BME280;22245;52.832;13.816;2024-01-11T09:23:17;102639.75;;;-1.14;100.00
17764;BME280;22245;52.832;13.816;2024-01-11T09:26:41;102624.03;;;-1.08;100.00
17764;BME280;22245;52.832;13.816;2024-01-11T09:30:04;102629.28;;;-1.09;100.00
17764;BME280;22245;52.832;13.816;2024-01-11T09:33:26;102632.75;;;-1.10;100.00
17764;BME280;22245;52.832;13.816;2024-01-11T09:36:48;102640.53;;;-1.01;100.00
17764;BME280;22245;52.832;13.816;2024-01-11T09:40:10;102642.25;;;-0.97;100.00
17764;BME280;22245;52.832;13.816;2024-01-11T09:43:33;102659.72;;;-1.02;100.00
17764;BME280;22245;52.832;13.816;2024-01-11T09:46:54;102662.31;;;-0.94;100.00
17764;BME280;22245;52.832;13.816;2024-01-11T09:50:17;102666.66;;;-0.93;100.00
17764;BME280;22245;52.832;13.816;2024-01-11T09:53:40;102682.34;;;-0.89;100.00
17764;BME280;22245;52.832;13.816;2024-01-11T09:57:02;102685.75;;;-0.79;100.00
17764;BME280;22245;52.832;13.816;2024-01-11T10:00:27;102692.78;;;-0.82;100.00
17764;BME280;22245;52.832;13.816;2024-01-11T10:03:49;102680.53;;;-0.82;100.00
17764;BME280;22245;52.832;13.816;2024-01-11T10:07:12;102689.28;;;-0.81;100.00
17764;BME280;22245;52.832;13.816;2024-01-11T10:10:35;102681.41;;;-0.83;100.00
17764;BME280;22245;52.832;13.816;2024-01-11T10:13:56;102681.38;;;-0.74;100.00
17764;BME280;22245;52.832;13.816;2024-01-11T10:17:20;102659.59;;;-0.76;100.00
17764;BME280;22245;52.832;13.816;2024-01-11T10:20:45;102657.75;;;-0.66;100.00
17764;BME280;22245;52.832;13.816;2024-01-11T10:24:06;102641.22;;;-0.69;100.00
17764;BME280;22245;52.832;13.816;2024-01-11T10:27:29;102648.22;;;-0.68;100.00
17764;BME280;22245;52.832;13.816;2024-01-11T10:30:50;102635.03;;;-0.61;100.00
17764;BME280;22245;52.832;13.816;2024-01-11T10:34:14;102619.38;;;-0.62;100.00
17764;BME280;22245;52.832;13.816;2024-01-11T10:37:37;102641.09;;;-0.54;100.00
17764;BME280;22245;52.832;13.816;2024-01-11T10:41:00;102632.41;;;-0.56;100.00
17764;BME280;22245;52.832;13.816;2024-01-11T10:44:26;102624.56;;;-0.59;100.00
17764;BME280;22245;52.832;13.816;2024-01-11T10:47:51;102631.53;;;-0.58;100.00
17764;BME280;22245;52.832;13.816;2024-01-11T10:51:19;102633.22;;;-0.49;100.00
17764;BME280;22245;52.832;13.816;2024-01-11T10:54:45;102636.66;;;-0.44;100.00
17764;BME280;22245;52.832;13.816;2024-01-11T10:58:07;102641.84;;;-0.39;100.00
17764;BME280;22245;52.832;13.816;2024-01-11T11:01:31;102637.41;;;-0.28;100.00
17764;BME280;22245;52.832;13.816;2024-01-11T11:04:53;102646.16;;;-0.29;100.00
17764;BME280;22245;52.832;13.816;2024-01-11T11:08:18;102654.84;;;-0.28;100.00
17764;BME280;22245;52.832;13.816;2024-01-11T11:11:41;102656.53;;;-0.21;100.00
17764;BME280;22245;52.832;13.816;2024-01-11T11:15:03;102653.09;;;-0.25;100.00
17764;BME280;22245;52.832;13.816;2024-01-11T11:18:26;102650.50;;;-0.30;100.00
17764;BME280;22245;52.832;13.816;2024-01-11T11:21:48;102652.25;;;-0.28;100.00
17764;BME280;22245;52.832;13.816;2024-01-11T11:25:23;102642.66;;;-0.28;100.00
17764;BME280;22245;52.832;13.816;2024-01-11T11:28:47;102651.25;;;-0.17;100.00
17764;BME280;22245;52.832;13.816;2024-01-11T11:32:10;102643.44;;;-0.21;100.00
17764;BME280;22245;52.832;13.816;2024-01-11T11:35:32;102651.31;;;-0.23;100.00
17764;BME280;22245;52.832;13.816;2024-01-11T11:38:53;102634.66;;;-0.14;100.00
17764;BME280;22245;52.832;13.816;2024-01-11T11:42:23;102643.38;;;-0.12;100.00
17764;BME280;22245;52.832;13.816;2024-01-11T11:45:48;102647.75;;;-0.16;100.00
17764;BME280;22245;52.832;13.816;2024-01-11T11:49:10;102642.50;;;-0.12;100.00
17764;BME280;22245;52.832;13.816;2024-01-11T11:52:34;102642.41;;;-0.03;100.00
17764;BME280;22245;52.832;13.816;2024-01-11T11:55:56;102645.06;;;-0.08;100.00
17764;BME280;22245;52.832;13.816;2024-01-11T11:59:20;102647.63;;;-0.03;100.00
17764;BME280;22245;52.832;13.816;2024-01-11T12:02:42;102637.16;;;0.00;100.00
17764;BME280;22245;52.832;13.816;2024-01-11T12:06:05;102648.47;;;0.01;100.00
17764;BME280;22245;52.832;13.816;2024-01-11T12:09:28;102650.25;;;-0.02;100.00
17764;BME280;22245;52.832;13.816;2024-01-11T12:12:50;102637.09;;;0.06;100.00
17764;BME280;22245;52.832;13.816;2024-01-11T12:16:13;102634.47;;;0.05;100.00
17764;BME280;22245;52.832;13.816;2024-01-11T12:19:35;102618.69;;;0.11;100.00
17764;BME280;22245;52.832;13.816;2024-01-11T12:22:58;102610.81;;;0.11;100.00
17764;BME280;22245;52.832;13.816;2024-01-11T12:26:20;102602.09;;;0.10;100.00
17764;BME280;22245;52.832;13.816;2024-01-11T12:29:43;102601.28;;;0.05;100.00
17764;BME280;22245;52.832;13.816;2024-01-11T12:33:19;102596.88;;;0.09;100.00
17764;BME280;22245;52.832;13.816;2024-01-11T12:36:42;102581.06;;;0.15;100.00
17764;BME280;22245;52.832;13.816;2024-01-11T12:40:05;102584.56;;;0.16;100.00
17764;BME280;22245;52.832;13.816;2024-01-11T12:43:31;102563.66;;;0.12;100.00
17764;BME280;22245;52.832;13.816;2024-01-11T12:46:54;102567.91;;;0.21;100.00
17764;BME280;22245;52.832;13.816;2024-01-11T12:50:17;102564.38;;;0.25;100.00
17764;BME280;22245;52.832;13.816;2024-01-11T12:53:40;102552.13;;;0.27;100.00
17764;BME280;22245;52.832;13.816;2024-01-11T12:57:03;102554.69;;;0.29;100.00
17764;BME280;22245;52.832;13.816;2024-01-11T13:00:25;102550.38;;;0.26;100.00
17764;BME280;22245;52.832;13.816;2024-01-11T13:03:46;102552.97;;;0.30;100.00
17764;BME280;22245;52.832;13.816;2024-01-11T13:07:10;102567.91;;;0.21;100.00
17764;BME280;22245;52.832;13.816;2024-01-11T13:10:32;102562.59;;;0.26;100.00
17764;BME280;22245;52.832;13.816;2024-01-11T13:13:53;102553.84;;;0.28;100.00
17764;BME280;22245;52.832;13.816;2024-01-11T13:17:14;102555.53;;;0.31;100.00
17764;BME280;22245;52.832;13.816;2024-01-11T13:20:36;102550.34;;;0.28;100.00
17764;BME280;22245;52.832;13.816;2024-01-11T13:23:59;102546.84;;;0.29;100.00
17764;BME280;22245;52.832;13.816;2024-01-11T13:27:21;102538.13;;;0.27;100.00
17764;BME280;22245;52.832;13.816;2024-01-11T13:30:43;102530.13;;;0.36;100.00
17764;BME280;22245;52.832;13.816;2024-01-11T13:34:05;102523.94;;;0.43;100.00
17764;BME280;22245;52.832;13.816;2024-01-11T13:37:28;102523.91;;;0.45;100.00
17764;BME280;22245;52.832;13.816;2024-01-11T13:40:51;102521.19;;;0.53;100.00
17764;BME280;22245;52.832;13.816;2024-01-11T13:44:13;102514.25;;;0.49;100.00
17764;BME280;22245;52.832;13.816;2024-01-11T13:47:35;102509.78;;;0.55;100.00
17764;BME280;22245;52.832;13.816;2024-01-11T13:50:56;102502.84;;;0.51;100.00
17764;BME280;22245;52.832;13.816;2024-01-11T13:54:18;102487.16;;;0.50;100.00
17764;BME280;22245;52.832;13.816;2024-01-11T13:57:42;102497.66;;;0.48;100.00
17764;BME280;22245;52.832;13.816;2024-01-11T14:01:03;102507.25;;;0.49;100.00
17764;BME280;22245;52.832;13.816;2024-01-11T14:04:25;102512.53;;;0.46;100.00
17764;BME280;22245;52.832;13.816;2024-01-11T14:07:47;102512.56;;;0.43;100.00
17764;BME280;22245;52.832;13.816;2024-01-11T14:11:14;102525.59;;;0.49;100.00
17764;BME280;22245;52.832;13.816;2024-01-11T14:14:37;102527.25;;;0.56;100.00
17764;BME280;22245;52.832;13.816;2024-01-11T14:17:59;102531.69;;;0.53;100.00
17764;BME280;22245;52.832;13.816;2024-01-11T14:21:21;102552.69;;;0.50;100.00
17764;BME280;22245;52.832;13.816;2024-01-11T14:24:43;102545.63;;;0.55;100.00
17764;BME280;22245;52.832;13.816;2024-01-11T14:28:05;102557.84;;;0.56;100.00
17764;BME280;22245;52.832;13.816;2024-01-11T14:31:30;102552.56;;;0.59;100.00
17764;BME280;22245;52.832;13.816;2024-01-11T14:34:52;102549.09;;;0.57;100.00
17764;BME280;22245;52.832;13.816;2024-01-11T14:38:13;102547.31;;;0.59;100.00
17764;BME280;22245;52.832;13.816;2024-01-11T14:41:35;102550.78;;;0.61;100.00
17764;BME280;22245;52.832;13.816;2024-01-11T14:44:57;102542.13;;;0.56;100.00
17764;BME280;22245;52.832;13.816;2024-01-11T14:48:21;102545.59;;;0.58;100.00
17764;BME280;22245;52.832;13.816;2024-01-11T14:51:43;102560.47;;;0.56;100.00
17764;BME280;22245;52.832;13.816;2024-01-11T14:55:06;102556.94;;;0.59;100.00
17764;BME280;22245;52.832;13.816;2024-01-11T14:58:30;102555.97;;;0.64;100.00
17764;BME280;22245;52.832;13.816;2024-01-11T15:01:52;102571.72;;;0.64;100.00
17764;BME280;22245;52.832;13.816;2024-01-11T15:05:15;102564.69;;;0.68;100.00
17764;BME280;22245;52.832;13.816;2024-01-11T15:08:36;102562.91;;;0.68;100.00
17764;BME280;22245;52.832;13.816;2024-01-11T15:11:58;102571.66;;;0.67;100.00
17764;BME280;22245;52.832;13.816;2024-01-11T15:15:21;102576.84;;;0.72;100.00
17764;BME280;22245;52.832;13.816;2024-01-11T15:18:42;102564.53;;;0.79;100.00
17764;BME280;22245;52.832;13.816;2024-01-11T15:22:07;102558.34;;;0.81;100.00
17764;BME280;22245;52.832;13.816;2024-01-11T15:25:32;102543.50;;;0.82;100.00
17764;BME280;22245;52.832;13.816;2024-01-11T15:28:53;102548.75;;;0.82;100.00
17764;BME280;22245;52.832;13.816;2024-01-11T15:32:15;102551.38;;;0.80;100.00
17764;BME280;22245;52.832;13.816;2024-01-11T15:35:36;102552.13;;;0.90;100.00
17764;BME280;22245;52.832;13.816;2024-01-11T15:38:59;102556.53;;;0.86;100.00
17764;BME280;22245;52.832;13.816;2024-01-11T15:42:36;102574.94;;;0.83;100.00
17764;BME280;22245;52.832;13.816;2024-01-11T15:45:59;102577.47;;;0.91;100.00
17764;BME280;22245;52.832;13.816;2024-01-11T15:49:21;102584.44;;;0.92;100.00
17764;BME280;22245;52.832;13.816;2024-01-11T15:52:43;102592.28;;;0.94;100.00
17764;BME280;22245;52.832;13.816;2024-01-11T15:56:05;102592.31;;;0.92;100.00
17764;BME280;22245;52.832;13.816;2024-01-11T15:59:27;102603.75;;;0.88;100.00
17764;BME280;22245;52.832;13.816;2024-01-11T16:02:49;102601.84;;;0.98;100.00
17764;BME280;22245;52.832;13.816;2024-01-11T16:06:11;102598.34;;;0.97;100.00
17764;BME280;22245;52.832;13.816;2024-01-11T16:09:33;102610.63;;;0.94;100.00
17764;BME280;22245;52.832;13.816;2024-01-11T16:12:56;102617.66;;;0.95;100.00
17764;BME280;22245;52.832;13.816;2024-01-11T16:16:18;102613.28;;;0.92;100.00
17764;BME280;22245;52.832;13.816;2024-01-11T16:19:41;102615.88;;;0.94;100.00
17764;BME280;22245;52.832;13.816;2024-01-11T16:23:03;102633.41;;;0.93;100.00
17764;BME280;22245;52.832;13.816;2024-01-11T16:26:25;102636.81;;;0.98;100.00
17764;BME280;22245;52.832;13.816;2024-01-11T16:29:48;102635.88;;;1.04;100.00
17764;BME280;22245;52.832;13.816;2024-01-11T16:33:09;102649.13;;;0.93;100.00
17764;BME280;22245;52.832;13.816;2024-01-11T16:36:35;102646.47;;;0.98;100.00
17764;BME280;22245;52.832;13.816;2024-01-11T16:39:57;102657.75;;;1.03;100.00
17764;BME280;22245;52.832;13.816;2024-01-11T16:43:19;102660.28;;;1.08;100.00
17764;BME280;22245;52.832;13.816;2024-01-11T16:46:42;102657.63;;;1.11;100.00
17764;BME280;22245;52.832;13.816;2024-01-11T16:50:04;102658.47;;;1.13;100.00
17764;BME280;22245;52.832;13.816;2024-01-11T16:53:28;102667.16;;;1.18;100.00
17764;BME280;22245;52.832;13.816;2024-01-11T16:56:50;102667.06;;;1.23;100.00
17764;BME280;22245;52.832;13.816;2024-01-11T17:00:13;102671.44;;;1.25;100.00
17764;BME280;22245;52.832;13.816;2024-01-11T17:03:37;102679.25;;;1.27;100.00
17764;BME280;22245;52.832;13.816;2024-01-11T17:06:59;102678.31;;;1.31;100.00
17764;BME280;22245;52.832;13.816;2024-01-11T17:10:21;102669.59;;;1.30;100.00
17764;BME280;22245;52.832;13.816;2024-01-11T17:13:44;102667.03;;;1.27;100.00
17764;BME280;22245;52.832;13.816;2024-01-11T17:17:06;102663.47;;;1.30;100.00